sensor_id;sensor_type;location;lat;lon;timestamp;pressure;altitude;pressure_sealevel;temperature;humidity
52625;BME280;38519;52.540;13.410;2023-05-11T00:00:29;100427.09;;;13.26;100.00
52625;BME280;38519;52.540;13.410;2023-05-11T00:02:54;100428.34;;;13.18;100.00
52625;BME280;38519;52.540;13.410;2023-05-11T00:05:19;100428.81;;;13.10;100.00
52625;BME280;38519;52.540;13.410;2023-05-11T00:07:46;100426.19;;;13.10;100.00
52625;BME280;38519;52.540;13.410;2023-05-11T00:10:11;100419.88;;;13.07;100.00
52625;BME280;38519;52.540;13.410;2023-05-11T00:12:36;100430.47;;;13.08;100.00
52625;BME280;38519;52.540;13.410;2023-05-11T00:15:02;100422.69;;;13.10;100.00
52625;BME280;38519;52.540;13.410;2023-05-11T00:17:27;100421.41;;;13.03;100.00
52625;BME280;38519;52.540;13.410;2023-05-11T00:19:52;100425.47;;;12.98;100.00
52625;BME280;38519;52.540;13.410;2023-05-11T00:22:17;100420.06;;;12.95;100.00
52625;BME280;38519;52.540;13.410;2023-05-11T00:24:42;100423.22;;;12.89;100.00
52625;BME280;38519;52.540;13.410;2023-05-11T00:27:08;100417.91;;;12.88;100.00
52625;BME280;38519;52.540;13.410;2023-05-11T00:29:33;100413.66;;;12.90;100.00
52625;BME280;38519;52.540;13.410;2023-05-11T00:31:58;100411.91;;;12.90;100.00
52625;BME280;38519;52.540;13.410;2023-05-11T00:34:23;100410.56;;;12.82;100.00
52625;BME280;38519;52.540;13.410;2023-05-11T00:36:49;100402.88;;;12.85;100.00
52625;BME280;38519;52.540;13.410;2023-05-11T00:39:14;100411.78;;;12.87;100.00
52625;BME280;38519;52.540;13.410;2023-05-11T00:41:39;100415.00;;;12.83;100.00
52625;BME280;38519;52.540;13.410;2023-05-11T00:44:04;100410.94;;;12.73;100.00
52625;BME280;38519;52.540;13.410;2023-05-11T00:46:30;100414.19;;;12.69;100.00
52625;BME280;38519;52.540;13.410;2023-05-11T00:48:55;100416.88;;;12.71;100.00
52625;BME280;38519;52.540;13.410;2023-05-11T00:51:21;100420.34;;;12.70;100.00
52625;BME280;38519;52.540;13.410;2023-05-11T00:53:46;100414.81;;;12.65;100.00
52625;BME280;38519;52.540;13.410;2023-05-11T00:56:12;100420.25;;;12.68;100.00
52625;BME280;38519;52.540;13.410;2023-05-11T00:58:37;100418.91;;;12.60;100.00
52625;BME280;38519;52.540;13.410;2023-05-11T01:01:02;100411.84;;;12.59;100.00
52625;BME280;38519;52.540;13.410;2023-05-11T01:03:28;100411.94;;;12.61;100.00
52625;BME280;38519;52.540;13.410;2023-05-11T01:08:23;100410.75;;;12.55;100.00
52625;BME280;38519;52.540;13.410;2023-05-11T01:10:57;100421.31;;;12.57;100.00
52625;BME280;38519;52.540;13.410;2023-05-11T01:13:39;100413.38;;;12.55;100.00
52625;BME280;38519;52.540;13.410;2023-05-11T01:16:19;100417.69;;;12.55;100.00
52625;BME280;38519;52.540;13.410;2023-05-11T01:18:48;100418.53;;;12.54;100.00
52625;BME280;38519;52.540;13.410;2023-05-11T01:21:15;100419.88;;;12.47;100.00
52625;BME280;38519;52.540;13.410;2023-05-11T01:29:29;100422.41;;;12.46;100.00
52625;BME280;38519;52.540;13.410;2023-05-11T01:31:30;100424.81;;;12.43;100.00
52625;BME280;38519;52.540;13.410;2023-05-11T01:33:57;100429.59;;;12.35;100.00
52625;BME280;38519;52.540;13.410;2023-05-11T01:36:26;100428.69;;;12.34;100.00
52625;BME280;38519;52.540;13.410;2023-05-11T01:38:53;100419.22;;;12.36;100.00
52625;BME280;38519;52.540;13.410;2023-05-11T01:41:22;100428.16;;;12.40;100.00
52625;BME280;38519;52.540;13.410;2023-05-11T01:43:52;100429.22;;;12.44;100.00
52625;BME280;38519;52.540;13.410;2023-05-11T01:46:18;100433.47;;;12.42;100.00
52625;BME280;38519;52.540;13.410;2023-05-11T01:48:45;100435.91;;;12.38;100.00
52625;BME280;38519;52.540;13.410;2023-05-11T01:51:13;100437.97;;;12.29;100.00
52625;BME280;38519;52.540;13.410;2023-05-11T01:53:39;100438.06;;;12.31;100.00
52625;BME280;38519;52.540;13.410;2023-05-11T01:56:06;100444.41;;;12.34;100.00
52625;BME280;38519;52.540;13.410;2023-05-11T01:58:33;100440.66;;;12.31;100.00
52625;BME280;38519;52.540;13.410;2023-05-11T02:00:59;100442.22;;;12.27;100.00
52625;BME280;38519;52.540;13.410;2023-05-11T02:03:27;100439.50;;;12.26;100.00
52625;BME280;38519;52.540;13.410;2023-05-11T02:05:54;100445.47;;;12.23;100.00
52625;BME280;38519;52.540;13.410;2023-05-11T02:08:19;100439.31;;;12.23;100.00
52625;BME280;38519;52.540;13.410;2023-05-11T02:10:45;100441.13;;;12.24;100.00
52625;BME280;38519;52.540;13.410;2023-05-11T02:13:11;100443.97;;;12.13;100.00
52625;BME280;38519;52.540;13.410;2023-05-11T02:15:40;100447.50;;;12.14;100.00
52625;BME280;38519;52.540;13.410;2023-05-11T02:18:10;100451.56;;;12.09;100.00
52625;BME280;38519;52.540;13.410;2023-05-11T02:20:36;100443.91;;;11.98;100.00
52625;BME280;38519;52.540;13.410;2023-05-11T02:23:03;100452.06;;;11.90;100.00
52625;BME280;38519;52.540;13.410;2023-05-11T02:25:29;100455.09;;;11.82;100.00
52625;BME280;38519;52.540;13.410;2023-05-11T02:27:55;100453.00;;;11.77;100.00
52625;BME280;38519;52.540;13.410;2023-05-11T02:30:20;100450.38;;;11.77;100.00
52625;BME280;38519;52.540;13.410;2023-05-11T02:32:47;100446.75;;;11.88;100.00
52625;BME280;38519;52.540;13.410;2023-05-11T02:35:15;100457.19;;;11.88;100.00
52625;BME280;38519;52.540;13.410;2023-05-11T02:37:42;100456.69;;;11.94;100.00
52625;BME280;38519;52.540;13.410;2023-05-11T02:40:15;100457.19;;;11.88;100.00
52625;BME280;38519;52.540;13.410;2023-05-11T02:42:41;100449.69;;;11.93;100.00
52625;BME280;38519;52.540;13.410;2023-05-11T02:45:07;100447.72;;;11.90;100.00
52625;BME280;38519;52.540;13.410;2023-05-11T02:47:44;100456.47;;;11.91;100.00
52625;BME280;38519;52.540;13.410;2023-05-11T02:50:11;100454.78;;;11.91;100.00
52625;BME280;38519;52.540;13.410;2023-05-11T02:52:38;100450.88;;;11.84;100.00
52625;BME280;38519;52.540;13.410;2023-05-11T03:04:13;100467.06;;;11.79;100.00
52625;BME280;38519;52.540;13.410;2023-05-11T03:06:39;100462.53;;;11.76;100.00
52625;BME280;38519;52.540;13.410;2023-05-11T03:09:04;100467.78;;;11.76;100.00
52625;BME280;38519;52.540;13.410;2023-05-11T03:11:30;100466.88;;;11.76;100.00
52625;BME280;38519;52.540;13.410;2023-05-11T03:13:55;100456.13;;;11.71;100.00
52625;BME280;38519;52.540;13.410;2023-05-11T03:16:21;100463.75;;;11.68;100.00
52625;BME280;38519;52.540;13.410;2023-05-11T03:18:46;100462.47;;;11.61;100.00
52625;BME280;38519;52.540;13.410;2023-05-11T03:21:13;100467.09;;;11.65;100.00
52625;BME280;38519;52.540;13.410;2023-05-11T03:23:40;100463.66;;;11.66;100.00
52625;BME280;38519;52.540;13.410;2023-05-11T03:26:05;100466.28;;;11.66;100.00
52625;BME280;38519;52.540;13.410;2023-05-11T03:28:31;100458.84;;;11.59;100.00
52625;BME280;38519;52.540;13.410;2023-05-11T03:30:57;100465.59;;;11.69;100.00
52625;BME280;38519;52.540;13.410;2023-05-11T03:33:22;100469.00;;;11.68;100.00
52625;BME280;38519;52.540;13.410;2023-05-11T03:35:48;100468.69;;;11.63;100.00
52625;BME280;38519;52.540;13.410;2023-05-11T03:38:15;100464.50;;;11.65;100.00
52625;BME280;38519;52.540;13.410;2023-05-11T03:40:41;100479.06;;;11.62;100.00
52625;BME280;38519;52.540;13.410;2023-05-11T03:43:07;100474.56;;;11.59;100.00
52625;BME280;38519;52.540;13.410;2023-05-11T03:45:34;100467.41;;;11.57;100.00
52625;BME280;38519;52.540;13.410;2023-05-11T03:48:01;100470.41;;;11.63;100.00
52625;BME280;38519;52.540;13.410;2023-05-11T03:50:27;100471.94;;;11.59;100.00
52625;BME280;38519;52.540;13.410;2023-05-11T03:52:53;100475.66;;;11.63;100.00
52625;BME280;38519;52.540;13.410;2023-05-11T03:55:19;100471.50;;;11.66;100.00
52625;BME280;38519;52.540;13.410;2023-05-11T03:57:45;100469.91;;;11.69;100.00
52625;BME280;38519;52.540;13.410;2023-05-11T04:00:11;100473.81;;;11.62;100.00
52625;BME280;38519;52.540;13.410;2023-05-11T04:02:36;100470.00;;;11.57;100.00
52625;BME280;38519;52.540;13.410;2023-05-11T04:05:08;100476.16;;;11.57;100.00
52625;BME280;38519;52.540;13.410;2023-05-11T04:07:34;100471.63;;;11.55;100.00
52625;BME280;38519;52.540;13.410;2023-05-11T04:09:59;100468.31;;;11.57;100.00
52625;BME280;38519;52.540;13.410;2023-05-11T04:12:25;100472.94;;;11.61;100.00
52625;BME280;38519;52.540;13.410;2023-05-11T04:14:50;100476.34;;;11.60;100.00
52625;BME280;38519;52.540;13.410;2023-05-11T04:17:15;100473.81;;;11.62;100.00
52625;BME280;38519;52.540;13.410;2023-05-11T04:19:40;100479.16;;;11.63;100.00
52625;BME280;38519;52.540;13.410;2023-05-11T04:22:06;100473.91;;;11.63;100.00
52625;BME280;38519;52.540;13.410;2023-05-11T04:24:31;100478.56;;;11.68;100.00
52625;BME280;38519;52.540;13.410;2023-05-11T04:26:56;100477.38;;;11.62;100.00
52625;BME280;38519;52.540;13.410;2023-05-11T04:29:21;100489.22;;;11.71;100.00
52625;BME280;38519;52.540;13.410;2023-05-11T04:31:46;100481.47;;;11.72;100.00
52625;BME280;38519;52.540;13.410;2023-05-11T04:34:12;100485.09;;;11.74;100.00
52625;BME280;38519;52.540;13.410;2023-05-11T04:36:37;100484.19;;;11.74;100.00
52625;BME280;38519;52.540;13.410;2023-05-11T04:39:02;100488.91;;;11.79;100.00
52625;BME280;38519;52.540;13.410;2023-05-11T04:41:28;100488.31;;;11.83;100.00
52625;BME280;38519;52.540;13.410;2023-05-11T04:43:53;100480.44;;;11.83;100.00
52625;BME280;38519;52.540;13.410;2023-05-11T04:46:18;100491.91;;;11.85;100.00
52625;BME280;38519;52.540;13.410;2023-05-11T04:48:44;100490.50;;;11.91;100.00
52625;BME280;38519;52.540;13.410;2023-05-11T04:51:09;100497.25;;;11.87;100.00
52625;BME280;38519;52.540;13.410;2023-05-11T04:53:34;100493.34;;;11.94;100.00
52625;BME280;38519;52.540;13.410;2023-05-11T04:56:00;100496.88;;;11.94;100.00
52625;BME280;38519;52.540;13.410;2023-05-11T04:58:25;100494.81;;;12.03;100.00
52625;BME280;38519;52.540;13.410;2023-05-11T05:00:50;100500.06;;;12.03;100.00
52625;BME280;38519;52.540;13.410;2023-05-11T05:03:15;100500.16;;;12.05;100.00
52625;BME280;38519;52.540;13.410;2023-05-11T05:05:40;100505.69;;;12.10;100.00
52625;BME280;38519;52.540;13.410;2023-05-11T05:08:06;100508.59;;;12.14;100.00
52625;BME280;38519;52.540;13.410;2023-05-11T05:10:31;100512.09;;;12.15;100.00
52625;BME280;38519;52.540;13.410;2023-05-11T05:12:56;100510.63;;;12.18;100.00
52625;BME280;38519;52.540;13.410;2023-05-11T05:15:22;100507.16;;;12.19;100.00
52625;BME280;38519;52.540;13.410;2023-05-11T05:17:47;100507.75;;;12.29;100.00
52625;BME280;38519;52.540;13.410;2023-05-11T05:20:12;100512.38;;;12.33;100.00
52625;BME280;38519;52.540;13.410;2023-05-11T05:22:37;100503.09;;;12.38;100.00
52625;BME280;38519;52.540;13.410;2023-05-11T05:25:03;100507.88;;;12.45;100.00
52625;BME280;38519;52.540;13.410;2023-05-11T05:27:28;100510.19;;;12.54;100.00
52625;BME280;38519;52.540;13.410;2023-05-11T05:29:54;100509.44;;;12.56;100.00
52625;BME280;38519;52.540;13.410;2023-05-11T05:32:19;100513.09;;;12.59;100.00
52625;BME280;38519;52.540;13.410;2023-05-11T05:34:44;100509.75;;;12.61;100.00
52625;BME280;38519;52.540;13.410;2023-05-11T05:37:11;100516.34;;;12.69;100.00
52625;BME280;38519;52.540;13.410;2023-05-11T05:39:36;100514.94;;;12.74;100.00
52625;BME280;38519;52.540;13.410;2023-05-11T05:42:01;100519.81;;;12.83;100.00
52625;BME280;38519;52.540;13.410;2023-05-11T05:44:27;100519.63;;;12.95;100.00
52625;BME280;38519;52.540;13.410;2023-05-11T05:46:52;100525.06;;;12.98;100.00
52625;BME280;38519;52.540;13.410;2023-05-11T05:49:17;100530.69;;;13.04;100.00
52625;BME280;38519;52.540;13.410;2023-05-11T05:51:42;100528.25;;;13.07;100.00
52625;BME280;38519;52.540;13.410;2023-05-11T05:54:08;100534.84;;;13.16;100.00
52625;BME280;38519;52.540;13.410;2023-05-11T05:56:33;100536.28;;;13.25;100.00
52625;BME280;38519;52.540;13.410;2023-05-11T05:58:59;100541.81;;;13.30;100.00
52625;BME280;38519;52.540;13.410;2023-05-11T06:01:24;100543.84;;;13.34;100.00
52625;BME280;38519;52.540;13.410;2023-05-11T06:03:49;100547.00;;;13.43;100.00
52625;BME280;38519;52.540;13.410;2023-05-11T06:06:15;100546.94;;;13.42;100.00
52625;BME280;38519;52.540;13.410;2023-05-11T06:08:41;100545.56;;;13.48;100.00
52625;BME280;38519;52.540;13.410;2023-05-11T06:11:07;100544.81;;;13.51;100.00
52625;BME280;38519;52.540;13.410;2023-05-11T06:13:32;100546.91;;;13.57;100.00
52625;BME280;38519;52.540;13.410;2023-05-11T06:15:58;100547.38;;;13.64;100.00
52625;BME280;38519;52.540;13.410;2023-05-11T06:18:23;100544.44;;;13.75;100.00
52625;BME280;38519;52.540;13.410;2023-05-11T06:20:48;100543.91;;;13.80;100.00
52625;BME280;38519;52.540;13.410;2023-05-11T06:23:13;100550.56;;;13.90;100.00
52625;BME280;38519;52.540;13.410;2023-05-11T06:25:38;100548.44;;;13.99;100.00
52625;BME280;38519;52.540;13.410;2023-05-11T06:28:04;100547.19;;;14.08;100.00
52625;BME280;38519;52.540;13.410;2023-05-11T06:30:29;100548.09;;;14.25;100.00
52625;BME280;38519;52.540;13.410;2023-05-11T06:32:55;100547.72;;;14.33;100.00
52625;BME280;38519;52.540;13.410;2023-05-11T06:35:20;100550.03;;;14.44;100.00
52625;BME280;38519;52.540;13.410;2023-05-11T06:37:46;100550.53;;;14.53;100.00
52625;BME280;38519;52.540;13.410;2023-05-11T06:40:11;100552.78;;;14.62;100.00
52625;BME280;38519;52.540;13.410;2023-05-11T06:42:37;100552.47;;;14.72;100.00
52625;BME280;38519;52.540;13.410;2023-05-11T06:45:03;100553.69;;;14.79;100.00
52625;BME280;38519;52.540;13.410;2023-05-11T06:47:29;100557.78;;;14.90;100.00
52625;BME280;38519;52.540;13.410;2023-05-11T06:49:54;100553.59;;;14.93;100.00
52625;BME280;38519;52.540;13.410;2023-05-11T06:52:19;100551.94;;;14.96;100.00
52625;BME280;38519;52.540;13.410;2023-05-11T06:54:45;100553.72;;;15.13;97.55
52625;BME280;38519;52.540;13.410;2023-05-11T06:57:10;100553.47;;;15.08;95.60
52625;BME280;38519;52.540;13.410;2023-05-11T06:59:35;100551.25;;;15.16;94.56
52625;BME280;38519;52.540;13.410;2023-05-11T07:02:01;100551.28;;;15.34;93.42
52625;BME280;38519;52.540;13.410;2023-05-11T07:04:26;100548.25;;;15.43;92.05
52625;BME280;38519;52.540;13.410;2023-05-11T07:06:53;100551.34;;;15.52;91.84
52625;BME280;38519;52.540;13.410;2023-05-11T07:09:18;100554.47;;;15.63;91.43
52625;BME280;38519;52.540;13.410;2023-05-11T07:11:44;100553.13;;;15.71;89.96
52625;BME280;38519;52.540;13.410;2023-05-11T07:14:09;100556.53;;;15.69;90.23
52625;BME280;38519;52.540;13.410;2023-05-11T07:16:35;100558.06;;;15.81;89.35
52625;BME280;38519;52.540;13.410;2023-05-11T07:19:03;100558.22;;;15.84;88.08
52625;BME280;38519;52.540;13.410;2023-05-11T07:21:28;100559.19;;;15.87;88.23
52625;BME280;38519;52.540;13.410;2023-05-11T07:23:53;100556.66;;;15.88;88.55
52625;BME280;38519;52.540;13.410;2023-05-11T07:26:19;100560.84;;;16.02;87.18
52625;BME280;38519;52.540;13.410;2023-05-11T07:28:46;100560.75;;;16.19;86.30
52625;BME280;38519;52.540;13.410;2023-05-11T07:31:11;100556.25;;;16.16;85.76
52625;BME280;38519;52.540;13.410;2023-05-11T07:33:36;100557.84;;;16.32;84.68
52625;BME280;38519;52.540;13.410;2023-05-11T07:36:02;100560.94;;;16.42;84.89
52625;BME280;38519;52.540;13.410;2023-05-11T07:38:27;100555.81;;;16.45;83.74
52625;BME280;38519;52.540;13.410;2023-05-11T07:40:53;100554.84;;;16.62;84.32
52625;BME280;38519;52.540;13.410;2023-05-11T07:43:18;100556.03;;;16.69;83.39
52625;BME280;38519;52.540;13.410;2023-05-11T07:45:43;100556.94;;;16.69;82.99
52625;BME280;38519;52.540;13.410;2023-05-11T07:48:09;100559.16;;;16.80;82.78
52625;BME280;38519;52.540;13.410;2023-05-11T07:50:34;100558.41;;;16.82;82.68
52625;BME280;38519;52.540;13.410;2023-05-11T07:52:59;100556.25;;;16.93;82.83
52625;BME280;38519;52.540;13.410;2023-05-11T07:55:25;100557.38;;;17.18;82.51
52625;BME280;38519;52.540;13.410;2023-05-11T07:57:53;100564.06;;;17.31;82.47
52625;BME280;38519;52.540;13.410;2023-05-11T08:00:18;100554.53;;;17.34;81.83
52625;BME280;38519;52.540;13.410;2023-05-11T08:02:44;100557.72;;;17.46;81.44
52625;BME280;38519;52.540;13.410;2023-05-11T08:05:09;100557.94;;;17.53;80.86
52625;BME280;38519;52.540;13.410;2023-05-11T08:07:34;100561.13;;;17.65;79.35
52625;BME280;38519;52.540;13.410;2023-05-11T08:10:01;100557.53;;;17.63;79.40
52625;BME280;38519;52.540;13.410;2023-05-11T08:12:26;100559.31;;;17.64;79.70
52625;BME280;38519;52.540;13.410;2023-05-11T08:14:51;100557.56;;;17.86;77.29
52625;BME280;38519;52.540;13.410;2023-05-11T08:17:16;100563.59;;;18.02;77.70
52625;BME280;38519;52.540;13.410;2023-05-11T08:19:42;100554.53;;;17.97;72.79
52625;BME280;38519;52.540;13.410;2023-05-11T08:22:07;100555.03;;;18.10;72.00
52625;BME280;38519;52.540;13.410;2023-05-11T08:24:32;100557.50;;;18.05;71.55
52625;BME280;38519;52.540;13.410;2023-05-11T08:26:57;100554.16;;;18.09;72.19
52625;BME280;38519;52.540;13.410;2023-05-11T08:29:23;100556.91;;;18.12;72.93
52625;BME280;38519;52.540;13.410;2023-05-11T08:31:51;100562.03;;;18.30;72.52
52625;BME280;38519;52.540;13.410;2023-05-11T08:34:16;100556.41;;;18.45;71.93
52625;BME280;38519;52.540;13.410;2023-05-11T08:36:41;100563.53;;;18.46;71.75
52625;BME280;38519;52.540;13.410;2023-05-11T08:39:06;100562.00;;;18.53;71.76
52625;BME280;38519;52.540;13.410;2023-05-11T08:41:32;100562.19;;;18.58;70.90
52625;BME280;38519;52.540;13.410;2023-05-11T08:43:58;100559.09;;;18.69;71.81
52625;BME280;38519;52.540;13.410;2023-05-11T08:46:24;100565.16;;;18.89;71.05
52625;BME280;38519;52.540;13.410;2023-05-11T08:48:52;100563.47;;;18.91;68.93
52625;BME280;38519;52.540;13.410;2023-05-11T08:51:18;100560.75;;;18.90;68.86
52625;BME280;38519;52.540;13.410;2023-05-11T08:53:43;100563.13;;;19.06;68.10
52625;BME280;38519;52.540;13.410;2023-05-11T08:56:08;100562.41;;;19.10;68.19
52625;BME280;38519;52.540;13.410;2023-05-11T08:58:34;100561.47;;;19.10;68.08
52625;BME280;38519;52.540;13.410;2023-05-11T09:01:02;100549.50;;;19.20;68.35
52625;BME280;38519;52.540;13.410;2023-05-11T09:03:28;100557.22;;;19.39;68.37
52625;BME280;38519;52.540;13.410;2023-05-11T09:05:53;100557.06;;;19.35;67.45
52625;BME280;38519;52.540;13.410;2023-05-11T09:08:19;100559.97;;;19.42;67.45
52625;BME280;38519;52.540;13.410;2023-05-11T09:10:46;100550.38;;;19.46;67.85
52625;BME280;38519;52.540;13.410;2023-05-11T09:13:13;100558.38;;;19.47;67.32
52625;BME280;38519;52.540;13.410;2023-05-11T09:15:39;100548.59;;;19.72;67.39
52625;BME280;38519;52.540;13.410;2023-05-11T09:18:04;100553.59;;;19.89;67.03
52625;BME280;38519;52.540;13.410;2023-05-11T09:20:31;100543.53;;;20.06;66.40
52625;BME280;38519;52.540;13.410;2023-05-11T09:22:56;100554.13;;;20.06;63.20
52625;BME280;38519;52.540;13.410;2023-05-11T09:25:22;100548.19;;;20.13;63.18
52625;BME280;38519;52.540;13.410;2023-05-11T09:27:48;100545.94;;;19.98;63.75
52625;BME280;38519;52.540;13.410;2023-05-11T09:30:14;100547.13;;;20.08;64.08
52625;BME280;38519;52.540;13.410;2023-05-11T09:33:01;100551.00;;;20.19;63.95
52625;BME280;38519;52.540;13.410;2023-05-11T09:35:27;100547.81;;;20.29;64.48
52625;BME280;38519;52.540;13.410;2023-05-11T09:38:09;100543.03;;;20.48;64.63
52625;BME280;38519;52.540;13.410;2023-05-11T09:40:41;100544.47;;;20.65;63.90
52625;BME280;38519;52.540;13.410;2023-05-11T09:43:17;100549.78;;;20.36;64.80
52625;BME280;38519;52.540;13.410;2023-05-11T09:45:43;100567.09;;;20.54;62.74
52625;BME280;38519;52.540;13.410;2023-05-11T09:48:28;100548.72;;;20.60;63.44
52625;BME280;38519;52.540;13.410;2023-05-11T09:50:58;100551.69;;;20.69;63.92
52625;BME280;38519;52.540;13.410;2023-05-11T09:53:34;100558.53;;;20.93;63.67
52625;BME280;38519;52.540;13.410;2023-05-11T09:55:59;100555.66;;;21.16;62.81
52625;BME280;38519;52.540;13.410;2023-05-11T09:58:25;100547.22;;;21.32;62.22
52625;BME280;38519;52.540;13.410;2023-05-11T10:00:51;100541.19;;;21.39;61.48
52625;BME280;38519;52.540;13.410;2023-05-11T10:03:16;100555.19;;;21.32;62.25
52625;BME280;38519;52.540;13.410;2023-05-11T10:05:54;100549.94;;;21.02;62.95
52625;BME280;38519;52.540;13.410;2023-05-11T10:08:21;100550.56;;;21.25;62.91
52625;BME280;38519;52.540;13.410;2023-05-11T10:10:51;100557.50;;;21.20;63.64
52625;BME280;38519;52.540;13.410;2023-05-11T10:13:16;100553.59;;;21.39;63.22
52625;BME280;38519;52.540;13.410;2023-05-11T10:15:41;100546.78;;;21.49;63.86
52625;BME280;38519;52.540;13.410;2023-05-11T10:18:07;100540.81;;;21.24;64.01
52625;BME280;38519;52.540;13.410;2023-05-11T10:20:33;100538.34;;;21.65;62.96
52625;BME280;38519;52.540;13.410;2023-05-11T10:22:58;100540.03;;;21.61;63.58
52625;BME280;38519;52.540;13.410;2023-05-11T10:25:24;100541.75;;;21.59;63.69
52625;BME280;38519;52.540;13.410;2023-05-11T10:27:50;100546.94;;;21.90;62.94
52625;BME280;38519;52.540;13.410;2023-05-11T10:30:16;100535.25;;;21.83;62.60
52625;BME280;38519;52.540;13.410;2023-05-11T10:32:42;100534.50;;;21.89;63.20
52625;BME280;38519;52.540;13.410;2023-05-11T10:35:08;100544.59;;;22.04;63.52
52625;BME280;38519;52.540;13.410;2023-05-11T10:37:33;100538.16;;;21.94;63.68
52625;BME280;38519;52.540;13.410;2023-05-11T10:39:59;100541.91;;;21.66;65.12
52625;BME280;38519;52.540;13.410;2023-05-11T10:45:16;100540.09;;;20.98;67.24
52625;BME280;38519;52.540;13.410;2023-05-11T10:50:14;100535.69;;;20.37;69.47
52625;BME280;38519;52.540;13.410;2023-05-11T10:57:54;100538.19;;;21.57;65.82
52625;BME280;38519;52.540;13.410;2023-05-11T11:03:11;100539.31;;;21.34;66.78
52625;BME280;38519;52.540;13.410;2023-05-11T11:05:36;100538.91;;;21.52;66.15
52625;BME280;38519;52.540;13.410;2023-05-11T11:08:02;100547.69;;;21.16;68.18
52625;BME280;38519;52.540;13.410;2023-05-11T11:10:35;100545.38;;;20.98;68.59
52625;BME280;38519;52.540;13.410;2023-05-11T11:13:11;100541.41;;;20.51;69.08
52625;BME280;38519;52.540;13.410;2023-05-11T11:18:24;100535.63;;;20.36;69.68
52625;BME280;38519;52.540;13.410;2023-05-11T11:20:50;100545.31;;;20.95;68.78
52625;BME280;38519;52.540;13.410;2023-05-11T11:26:00;100531.75;;;20.84;69.24
52625;BME280;38519;52.540;13.410;2023-05-11T11:28:27;100535.16;;;20.80;69.23
52625;BME280;38519;52.540;13.410;2023-05-11T11:33:35;100536.25;;;20.58;69.70
52625;BME280;38519;52.540;13.410;2023-05-11T11:36:01;100534.56;;;20.60;69.84
52625;BME280;38519;52.540;13.410;2023-05-11T11:38:26;100532.91;;;20.63;69.75
52625;BME280;38519;52.540;13.410;2023-05-11T11:40:52;100538.53;;;20.44;70.16
52625;BME280;38519;52.540;13.410;2023-05-11T11:45:52;100542.84;;;20.42;71.03
52625;BME280;38519;52.540;13.410;2023-05-11T11:50:46;100538.53;;;20.15;72.72
52625;BME280;38519;52.540;13.410;2023-05-11T11:56:00;100540.38;;;19.90;73.99
52625;BME280;38519;52.540;13.410;2023-05-11T11:59:07;100549.69;;;19.77;74.07
52625;BME280;38519;52.540;13.410;2023-05-11T12:01:14;100547.78;;;19.73;73.86
52625;BME280;38519;52.540;13.410;2023-05-11T12:03:40;100548.16;;;19.84;73.61
52625;BME280;38519;52.540;13.410;2023-05-11T12:06:06;100552.66;;;19.87;72.32
52625;BME280;38519;52.540;13.410;2023-05-11T12:08:33;100555.97;;;19.79;71.73
52625;BME280;38519;52.540;13.410;2023-05-11T12:10:59;100549.75;;;19.79;71.71
52625;BME280;38519;52.540;13.410;2023-05-11T12:13:25;100555.84;;;20.04;71.11
52625;BME280;38519;52.540;13.410;2023-05-11T12:16:06;100548.00;;;20.07;70.55
52625;BME280;38519;52.540;13.410;2023-05-11T12:18:31;100545.91;;;20.25;70.15
52625;BME280;38519;52.540;13.410;2023-05-11T12:20:56;100551.09;;;20.22;69.84
52625;BME280;38519;52.540;13.410;2023-05-11T12:23:22;100560.34;;;20.35;69.82
52625;BME280;38519;52.540;13.410;2023-05-11T12:25:59;100552.66;;;20.44;69.74
52625;BME280;38519;52.540;13.410;2023-05-11T12:28:24;100551.47;;;20.63;68.99
52625;BME280;38519;52.540;13.410;2023-05-11T12:30:53;100563.41;;;20.78;67.92
52625;BME280;38519;52.540;13.410;2023-05-11T12:33:18;100557.00;;;20.69;68.32
52625;BME280;38519;52.540;13.410;2023-05-11T12:35:44;100552.13;;;20.85;67.98
52625;BME280;38519;52.540;13.410;2023-05-11T12:38:09;100562.56;;;20.79;68.17
52625;BME280;38519;52.540;13.410;2023-05-11T12:40:36;100555.38;;;20.46;69.33
52625;BME280;38519;52.540;13.410;2023-05-11T12:43:02;100552.47;;;20.38;70.35
52625;BME280;38519;52.540;13.410;2023-05-11T12:45:28;100553.50;;;20.72;69.25
52625;BME280;38519;52.540;13.410;2023-05-11T12:47:55;100549.94;;;21.67;66.84
52625;BME280;38519;52.540;13.410;2023-05-11T12:50:21;100562.28;;;21.67;67.38
52625;BME280;38519;52.540;13.410;2023-05-11T12:52:46;100548.69;;;21.21;68.49
52625;BME280;38519;52.540;13.410;2023-05-11T12:55:13;100556.84;;;20.95;69.51
52625;BME280;38519;52.540;13.410;2023-05-11T12:57:40;100555.91;;;20.95;69.69
52625;BME280;38519;52.540;13.410;2023-05-11T13:00:07;100564.34;;;20.80;69.82
52625;BME280;38519;52.540;13.410;2023-05-11T13:02:34;100548.34;;;20.77;69.59
52625;BME280;38519;52.540;13.410;2023-05-11T13:04:59;100554.41;;;21.03;69.08
52625;BME280;38519;52.540;13.410;2023-05-11T13:07:34;100561.25;;;21.28;68.51
52625;BME280;38519;52.540;13.410;2023-05-11T13:10:00;100564.25;;;22.48;65.61
52625;BME280;38519;52.540;13.410;2023-05-11T13:12:25;100570.44;;;22.90;63.33
52625;BME280;38519;52.540;13.410;2023-05-11T13:17:32;100570.63;;;22.99;63.21
52625;BME280;38519;52.540;13.410;2023-05-11T13:22:42;100557.00;;;23.26;62.98